Airfield :
LOGIN :

Register | Disclaimer

   EN    FR    IT 

 










Legend :    VFR   Marginal VFR   IFR   Intensive IFR   Very Intensive IFR
Visi :
Ceiling :
>= 8 km
>= 3000ft
5 to 8 km
1000 to 3000 ft
1500m to 5 km
500 to 1000 ft
800 to 1500m
200 to 500 ft
< 800m
< 200 ft
Symbols :   Thunderstorms  Fog  Heavy snow  Heavy precipitations  Wind > 20 kt
SIGMETs :     Misc.  Thunderstorms  Icing  Turbulence  Mountain Waves  Volcanic Ashes






- Airport Elevation : 121 ft
- IATA code : HUY


EGNJ - Humberside

CURRENT METAR :
  • 271350Z 29016KT 9999 SCT035 07/M01 Q1000

EXPIRED METARs :
  • 271320Z 30020KT 9999 FEW018 SCT026 07/M01 Q1000
  • 271250Z 29021KT 9999 FEW018 SCT026 07/M00 Q0999
  • 271220Z 30017KT 9999 FEW018 SCT026 06/00 Q0999
  • 271150Z 30014KT 9999 FEW010 SCT026 06/01 Q0999
  • 271120Z 30015KT 9999 FEW010 SCT026 06/01 Q0998

TAF TAF EGNJ
Valid from the 27 at 12:00 until the 27 at 21:00 UTC


271102Z 2712/2721 30012KT 9999 FEW014 SCT030
PROB30
TEMPO 2712/2721 28015G25KT
ATIS : +44 1652 682 020



MET'MAP, your aeronautical weather chart ! - Copyright ORBIFLY December 2007 - Disclaimer

ORBIFLY MET'MAP TEAM :

Programming & Development : Alexandra Zaïnal
Concept & original design : Baudouin d'Aumeries
Assistance for programming : Marc-Olivier Méhu
Technical & hardware support : Manuel Goepfert

Contact : metmap@orbifly.com




SOURCES & CREDITS :

   NOAA